createdAt,value
2017-04-09T00:00:32.942Z,76
2017-04-09T00:01:33.708Z,75
2017-04-09T00:02:34.730Z,75
2017-04-09T00:03:35.495Z,75
2017-04-09T00:04:36.261Z,75
2017-04-09T00:05:37.214Z,75
2017-04-09T00:06:37.980Z,74
2017-04-09T00:07:38.996Z,74
2017-04-09T00:08:39.763Z,75
2017-04-09T00:09:40.535Z,74
2017-04-09T00:10:41.300Z,75
2017-04-09T00:11:42.068Z,75
2017-04-09T00:12:43.083Z,75
2017-04-09T00:13:43.850Z,75
2017-04-09T00:14:44.618Z,75
2017-04-09T00:15:45.384Z,75
2017-04-09T00:16:46.154Z,75
2017-04-09T00:17:47.171Z,75
2017-04-09T00:18:47.940Z,75
2017-04-09T00:19:48.704Z,75
2017-04-09T00:20:49.474Z,75
2017-04-09T00:21:50.239Z,76
2017-04-09T00:22:51.307Z,76
2017-04-09T00:23:52.074Z,75
2017-04-09T00:24:52.841Z,75
2017-04-09T00:25:53.610Z,75
2017-04-09T00:26:54.378Z,75
2017-04-09T00:27:55.444Z,75
2017-04-09T00:28:56.207Z,76
2017-04-09T00:29:56.978Z,75
2017-04-09T00:30:57.744Z,76
2017-04-09T00:31:58.513Z,76
2017-04-09T00:32:59.583Z,76
2017-04-09T00:34:00.357Z,76
2017-04-09T00:35:01.120Z,76
2017-04-09T00:36:01.889Z,76
2017-04-09T00:37:02.654Z,76
2017-04-09T00:38:03.673Z,76
2017-04-09T00:39:04.438Z,77
2017-04-09T00:40:05.203Z,76
2017-04-09T00:41:05.970Z,76
2017-04-09T00:42:06.737Z,76
2017-04-09T00:43:07.803Z,77
2017-04-09T00:44:08.573Z,76
2017-04-09T00:45:09.336Z,76
2017-04-09T00:46:10.103Z,76
2017-04-09T00:47:10.872Z,76
2017-04-09T00:48:11.889Z,76
2017-04-09T00:49:12.659Z,77
2017-04-09T00:50:13.430Z,77
2017-04-09T00:51:14.195Z,77
2017-04-09T00:52:14.962Z,76
2017-04-09T00:53:16.027Z,76
2017-04-09T00:54:16.798Z,77
2017-04-09T00:55:17.563Z,77
2017-04-09T00:56:18.333Z,76
2017-04-09T00:57:19.099Z,76
2017-04-09T00:58:20.122Z,76
2017-04-09T00:59:20.888Z,77
2017-04-09T01:00:21.658Z,77
2017-04-09T01:01:22.423Z,77
2017-04-09T01:02:23.192Z,77
2017-04-09T01:03:24.206Z,77
2017-04-09T01:04:24.977Z,77
2017-04-09T01:05:25.743Z,77
2017-04-09T01:06:26.514Z,77
2017-04-09T01:07:27.279Z,77
2017-04-09T01:08:28.300Z,77
2017-04-09T01:09:29.065Z,77
2017-04-09T01:10:29.834Z,77
2017-04-09T01:11:30.602Z,77
2017-04-09T01:12:31.369Z,77
2017-04-09T01:13:32.384Z,77
2017-04-09T01:14:33.153Z,77
2017-04-09T01:15:34.104Z,77
2017-04-09T01:16:34.870Z,77
2017-04-09T01:17:35.637Z,77
2017-04-09T01:18:36.660Z,77
2017-04-09T01:19:37.423Z,77
2017-04-09T01:20:38.188Z,78
2017-04-09T01:21:38.957Z,78
2017-04-09T01:22:39.721Z,77
2017-04-09T01:23:40.741Z,78
2017-04-09T01:24:41.504Z,77
2017-04-09T01:25:42.278Z,78
2017-04-09T01:26:43.338Z,78
2017-04-09T01:27:44.105Z,78
2017-04-09T01:28:44.871Z,78
2017-04-09T01:29:45.642Z,78
2017-04-09T01:30:46.404Z,78
2017-04-09T01:31:47.421Z,78
2017-04-09T01:32:48.188Z,78
2017-04-09T01:33:48.954Z,78
2017-04-09T01:34:49.719Z,78
2017-04-09T01:35:50.489Z,78
2017-04-09T01:36:51.503Z,79
2017-04-09T01:37:52.271Z,79
2017-04-09T01:38:53.040Z,79
2017-04-09T01:39:53.805Z,78
2017-04-09T01:40:54.575Z,79
2017-04-09T01:41:55.590Z,79
2017-04-09T01:42:56.358Z,78
2017-04-09T01:43:57.125Z,79
2017-04-09T01:44:57.892Z,79
2017-04-09T01:45:58.660Z,79
2017-04-09T01:46:59.678Z,79
2017-04-09T01:48:00.626Z,78
2017-04-09T01:49:01.394Z,79
2017-04-09T01:50:02.161Z,78
2017-04-09T01:51:02.927Z,79
2017-04-09T01:52:03.946Z,79
2017-04-09T01:53:04.713Z,79
2017-04-09T01:54:05.481Z,79
2017-04-09T01:55:06.246Z,78
2017-04-09T01:56:07.016Z,78
2017-04-09T01:57:08.029Z,79
2017-04-09T01:58:08.796Z,79
2017-04-09T01:59:09.562Z,79
2017-04-09T02:00:10.326Z,79
2017-04-09T02:01:11.093Z,79
2017-04-09T02:02:12.109Z,79
2017-04-09T02:03:12.875Z,79
2017-04-09T02:04:13.645Z,79
2017-04-09T02:05:14.409Z,79
2017-04-09T02:06:15.175Z,79
2017-04-09T02:07:16.191Z,79
2017-04-09T02:08:16.954Z,79
2017-04-09T02:09:17.726Z,79
2017-04-09T02:10:18.490Z,79
2017-04-09T02:11:19.255Z,79
2017-04-09T02:12:20.270Z,79
2017-04-09T02:13:21.038Z,80
2017-04-09T02:14:21.806Z,80
2017-04-09T02:15:22.573Z,79
2017-04-09T02:16:23.342Z,79
2017-04-09T02:17:24.355Z,80
2017-04-09T02:18:25.121Z,79
2017-04-09T02:19:25.888Z,79
2017-04-09T02:20:26.654Z,79
2017-04-09T02:21:27.430Z,79
2017-04-09T02:22:28.443Z,79
2017-04-09T02:23:29.208Z,79
2017-04-09T02:24:29.974Z,79
2017-04-09T02:25:30.739Z,79
2017-04-09T02:26:31.505Z,79
2017-04-09T02:27:32.524Z,80
2017-04-09T02:28:33.291Z,80
2017-04-09T02:29:34.059Z,80
2017-04-09T02:30:34.826Z,80
2017-04-09T02:31:35.588Z,79
2017-04-09T02:32:36.603Z,79
2017-04-09T02:33:37.371Z,79
2017-04-09T02:34:38.140Z,79
2017-04-09T02:35:38.908Z,79
2017-04-09T02:36:39.673Z,79
2017-04-09T02:37:40.693Z,79
2017-04-09T02:38:41.462Z,79
2017-04-09T02:39:42.230Z,79
2017-04-09T02:40:42.999Z,79
2017-04-09T02:41:43.766Z,79
2017-04-09T02:42:44.785Z,79
2017-04-09T02:43:45.552Z,79
2017-04-09T02:44:46.317Z,80
2017-04-09T02:45:47.082Z,80
2017-04-09T02:46:47.854Z,80
2017-04-09T02:47:48.868Z,79
2017-04-09T02:48:49.636Z,80
2017-04-09T02:49:50.401Z,80
2017-04-09T02:50:51.169Z,80
2017-04-09T02:51:51.938Z,81
2017-04-09T02:52:52.955Z,80
2017-04-09T02:53:53.720Z,80
2017-04-09T02:54:54.487Z,81
2017-04-09T02:55:55.251Z,81
2017-04-09T02:56:56.017Z,80
2017-04-09T02:57:57.032Z,80
2017-04-09T02:58:57.801Z,80
2017-04-09T02:59:58.567Z,81
2017-04-09T03:00:59.334Z,81
2017-04-09T03:02:00.100Z,81
2017-04-09T03:03:01.119Z,81
2017-04-09T03:04:01.889Z,81
2017-04-09T03:05:02.659Z,81
2017-04-09T03:06:03.426Z,81
2017-04-09T03:07:04.189Z,80
2017-04-09T03:08:05.206Z,80
2017-04-09T03:09:05.974Z,81
2017-04-09T03:10:06.739Z,81
2017-04-09T03:11:07.504Z,81
2017-04-09T03:12:08.272Z,81
2017-04-09T03:13:09.287Z,81
2017-04-09T03:14:10.056Z,81
2017-04-09T03:15:10.820Z,81
2017-04-09T03:16:11.586Z,81
2017-04-09T03:17:12.356Z,81
2017-04-09T03:18:13.370Z,81
2017-04-09T03:19:14.141Z,80
2017-04-09T03:20:14.909Z,81
2017-04-09T03:21:15.673Z,81
2017-04-09T03:22:16.441Z,81
2017-04-09T03:23:17.462Z,81
2017-04-09T03:24:18.226Z,81
2017-04-09T03:25:18.996Z,81
2017-04-09T03:26:19.758Z,81
2017-04-09T03:27:20.530Z,82
2017-04-09T03:28:21.549Z,82
2017-04-09T03:29:22.313Z,82
2017-04-09T03:30:23.077Z,81
2017-04-09T03:31:23.843Z,81
2017-04-09T03:32:24.616Z,82
2017-04-09T03:33:25.634Z,81
2017-04-09T03:34:26.401Z,81
2017-04-09T03:35:27.163Z,81
2017-04-09T03:36:27.932Z,82
2017-04-09T03:37:28.696Z,81
2017-04-09T03:38:29.719Z,82
2017-04-09T03:39:30.484Z,81
2017-04-09T03:40:31.255Z,81
2017-04-09T03:41:32.020Z,81
2017-04-09T03:42:32.790Z,81
2017-04-09T03:43:33.802Z,82
2017-04-09T03:44:34.570Z,82
2017-04-09T03:45:35.333Z,82
2017-04-09T03:46:36.099Z,82
2017-04-09T03:47:36.869Z,82
2017-04-09T03:48:37.882Z,82
2017-04-09T03:49:38.651Z,82
2017-04-09T03:50:39.415Z,82
2017-04-09T03:51:40.180Z,83
2017-04-09T03:52:40.945Z,83
2017-04-09T03:53:41.959Z,83
2017-04-09T03:54:42.726Z,83
2017-04-09T03:55:43.493Z,83
2017-04-09T03:56:44.259Z,82
2017-04-09T03:57:45.023Z,82
2017-04-09T03:58:46.042Z,82
2017-04-09T03:59:46.808Z,82
2017-04-09T04:00:47.573Z,82
2017-04-09T04:01:48.341Z,82
2017-04-09T04:02:49.105Z,82
2017-04-09T04:03:50.121Z,82
2017-04-09T04:04:50.889Z,82
2017-04-09T04:05:51.654Z,82
2017-04-09T04:06:52.419Z,82
2017-04-09T04:07:53.185Z,82
2017-04-09T04:08:54.204Z,82
2017-04-09T04:09:54.969Z,82
2017-04-09T04:10:55.737Z,82
2017-04-09T04:11:56.500Z,82
2017-04-09T04:12:57.270Z,82
2017-04-09T04:13:58.283Z,82
2017-04-09T04:14:59.051Z,82
2017-04-09T04:15:59.812Z,82
2017-04-09T04:17:00.579Z,83
2017-04-09T04:18:01.346Z,83
2017-04-09T04:19:02.362Z,82
2017-04-09T04:20:03.128Z,82
2017-04-09T04:21:03.895Z,82
2017-04-09T04:22:04.676Z,82
2017-04-09T04:23:05.427Z,82
2017-04-09T04:24:06.441Z,82
2017-04-09T04:25:07.206Z,82
2017-04-09T04:26:07.973Z,83
2017-04-09T04:27:08.741Z,83
2017-04-09T04:28:09.509Z,83
2017-04-09T04:29:10.527Z,83
2017-04-09T04:30:11.292Z,82
2017-04-09T04:31:12.055Z,83
2017-04-09T04:32:12.824Z,83
2017-04-09T04:33:13.592Z,83
2017-04-09T04:34:14.607Z,83
2017-04-09T04:35:15.377Z,83
2017-04-09T04:36:16.141Z,83
2017-04-09T04:37:16.903Z,83
2017-04-09T04:38:17.675Z,83
2017-04-09T04:39:18.688Z,83
2017-04-09T04:40:19.456Z,83
2017-04-09T04:41:20.225Z,83
2017-04-09T04:42:20.996Z,83
2017-04-09T04:43:21.764Z,83
2017-04-09T04:44:22.969Z,83
2017-04-09T04:45:23.737Z,84
2017-04-09T04:46:24.502Z,84
2017-04-09T04:47:25.272Z,84
2017-04-09T04:48:26.042Z,84
2017-04-09T04:49:27.055Z,84
2017-04-09T04:50:27.824Z,84
2017-04-09T04:51:28.594Z,84
2017-04-09T04:52:29.366Z,84
2017-04-09T04:53:30.139Z,84
2017-04-09T04:54:31.157Z,84
2017-04-09T04:55:31.926Z,83
2017-04-09T04:56:32.693Z,83
2017-04-09T04:57:33.465Z,83
2017-04-09T04:58:34.237Z,83
2017-04-09T04:59:35.258Z,82
2017-04-09T05:00:36.028Z,82
2017-04-09T05:01:36.796Z,82
2017-04-09T05:02:37.570Z,82
2017-04-09T05:03:38.336Z,82
2017-04-09T05:04:39.351Z,82
2017-04-09T05:05:40.120Z,82
2017-04-09T05:06:40.894Z,82
2017-04-09T05:07:41.669Z,82
2017-04-09T05:08:42.436Z,82
2017-04-09T05:09:43.457Z,82
2017-04-09T05:10:44.225Z,82
2017-04-09T05:11:45.000Z,82
2017-04-09T05:12:45.767Z,82
2017-04-09T05:13:46.534Z,82
2017-04-09T05:14:47.557Z,82
2017-04-09T05:15:48.326Z,82
2017-04-09T05:16:49.097Z,82
2017-04-09T05:17:49.870Z,82
2017-04-09T05:18:50.651Z,81
2017-04-09T05:19:51.657Z,82
2017-04-09T05:20:52.563Z,82
2017-04-09T05:21:54.588Z,82
2017-04-09T05:22:55.409Z,81
2017-04-09T05:23:56.259Z,81
2017-04-09T05:24:57.470Z,81
2017-04-09T05:25:58.590Z,81
2017-04-09T05:26:59.416Z,81
2017-04-09T05:28:00.185Z,82
2017-04-09T05:29:00.957Z,82
2017-04-09T05:30:01.980Z,82
2017-04-09T05:31:02.750Z,82
2017-04-09T05:32:03.524Z,82
2017-04-09T05:33:04.291Z,82
2017-04-09T05:34:05.064Z,82
2017-04-09T05:35:06.084Z,81
2017-04-09T05:36:06.855Z,81
2017-04-09T05:37:07.627Z,82
2017-04-09T05:38:08.397Z,82
2017-04-09T05:39:09.168Z,82
2017-04-09T05:40:10.188Z,81
2017-04-09T05:41:10.961Z,82
2017-04-09T05:42:11.730Z,81
2017-04-09T05:43:12.532Z,81
2017-04-09T05:44:13.297Z,81
2017-04-09T05:45:14.313Z,81
2017-04-09T05:46:15.162Z,81
2017-04-09T05:47:15.965Z,81
2017-04-09T05:48:16.734Z,81
2017-04-09T05:49:17.508Z,81
2017-04-09T05:50:18.530Z,81
2017-04-09T05:51:19.333Z,81
2017-04-09T05:52:20.097Z,80
2017-04-09T05:53:20.868Z,80
2017-04-09T05:54:21.640Z,81
2017-04-09T05:55:22.671Z,80
2017-04-09T05:56:23.557Z,80
2017-04-09T05:57:24.352Z,80
2017-04-09T05:58:25.222Z,80
2017-04-09T05:59:25.991Z,80
2017-04-09T06:00:27.091Z,80
2017-04-09T06:01:27.862Z,80
2017-04-09T06:02:28.635Z,80
2017-04-09T06:03:29.407Z,80
2017-04-09T06:04:30.181Z,80
2017-04-09T06:05:31.204Z,79
2017-04-09T06:06:32.027Z,79
2017-04-09T06:07:32.802Z,79
2017-04-09T06:08:33.577Z,79
2017-04-09T06:09:34.352Z,78
2017-04-09T06:10:35.377Z,78
2017-04-09T06:11:36.150Z,78
2017-04-09T06:12:36.928Z,78
2017-04-09T06:13:37.694Z,78
2017-04-09T06:14:38.467Z,77
2017-04-09T06:15:39.491Z,77
2017-04-09T06:16:40.269Z,77
2017-04-09T06:17:41.038Z,76
2017-04-09T06:18:41.811Z,76
2017-04-09T06:19:42.638Z,76
2017-04-09T06:20:43.692Z,76
2017-04-09T06:21:44.462Z,75
2017-04-09T06:22:45.273Z,75
2017-04-09T06:23:46.006Z,74
2017-04-09T06:24:46.779Z,74
2017-04-09T06:25:47.800Z,74
2017-04-09T06:26:48.604Z,73
2017-04-09T06:27:49.429Z,73
2017-04-09T06:28:50.270Z,73
2017-04-09T06:29:51.053Z,73
2017-04-09T06:30:52.154Z,73
2017-04-09T06:31:52.943Z,73
2017-04-09T06:32:53.717Z,72
2017-04-09T06:33:54.492Z,71
2017-04-09T06:34:55.267Z,71
2017-04-09T06:35:56.297Z,71
2017-04-09T06:36:57.072Z,70
2017-04-09T06:37:57.851Z,70
2017-04-09T06:38:58.626Z,70
2017-04-09T06:39:59.406Z,69
2017-04-09T06:41:00.433Z,69
2017-04-09T06:42:01.211Z,69
2017-04-09T06:43:01.989Z,68
2017-04-09T06:44:02.772Z,68
2017-04-09T06:45:03.555Z,67
2017-04-09T06:46:04.580Z,67
2017-04-09T06:47:05.362Z,67
2017-04-09T06:48:06.145Z,67
2017-04-09T06:49:06.922Z,66
2017-04-09T06:50:07.706Z,65
2017-04-09T06:51:08.739Z,66
2017-04-09T06:52:09.517Z,66
2017-04-09T06:53:10.298Z,66
2017-04-09T06:54:11.078Z,66
2017-04-09T06:55:11.863Z,66
2017-04-09T06:56:12.895Z,65
2017-04-09T06:57:13.678Z,65
2017-04-09T06:58:14.647Z,65
2017-04-09T06:59:15.428Z,64
2017-04-09T07:00:16.209Z,64
2017-04-09T07:01:17.243Z,64
2017-04-09T07:02:18.026Z,64
2017-04-09T07:03:18.808Z,64
2017-04-09T07:04:19.593Z,64
2017-04-09T07:05:20.377Z,64
2017-04-09T07:06:21.412Z,64
2017-04-09T07:07:22.197Z,65
2017-04-09T07:08:22.976Z,64
2017-04-09T07:09:23.762Z,64
2017-04-09T07:10:24.542Z,64
2017-04-09T07:11:25.576Z,63
2017-04-09T07:12:26.359Z,62
2017-04-09T07:13:27.144Z,63
2017-04-09T07:14:27.926Z,62
2017-04-09T07:15:28.713Z,61
2017-04-09T07:16:29.744Z,60
2017-04-09T07:17:30.528Z,59
2017-04-09T07:18:31.314Z,59
2017-04-09T07:19:32.099Z,58
2017-04-09T07:20:32.885Z,58
2017-04-09T07:21:33.919Z,57
2017-04-09T07:22:34.700Z,57
2017-04-09T07:23:35.487Z,57
2017-04-09T07:24:36.270Z,56
2017-04-09T07:25:37.057Z,56
2017-04-09T07:26:38.091Z,57
2017-04-09T07:27:38.877Z,57
2017-04-09T07:28:39.660Z,57
2017-04-09T07:29:40.447Z,56
2017-04-09T07:30:41.232Z,55
2017-04-09T07:31:42.267Z,57
2017-04-09T07:32:43.052Z,56
2017-04-09T07:33:43.841Z,56
2017-04-09T07:34:44.629Z,56
2017-04-09T07:35:45.408Z,54
2017-04-09T07:36:46.629Z,56
2017-04-09T07:37:47.414Z,55
2017-04-09T07:38:48.202Z,54
2017-04-09T07:39:48.983Z,54
2017-04-09T07:40:49.769Z,54
2017-04-09T07:41:50.806Z,54
2017-04-09T07:42:51.589Z,54
2017-04-09T07:43:52.374Z,55
2017-04-09T07:44:53.159Z,54
2017-04-09T07:45:53.948Z,55
2017-04-09T07:46:54.987Z,54
2017-04-09T07:47:55.770Z,55
2017-04-09T07:48:56.559Z,55
2017-04-09T07:49:57.345Z,56
2017-04-09T07:50:58.131Z,56
2017-04-09T07:51:59.166Z,57
2017-04-09T07:52:59.953Z,57
2017-04-09T07:54:00.740Z,57
2017-04-09T07:55:01.528Z,57
2017-04-09T07:56:02.322Z,57
2017-04-09T07:57:03.359Z,55
2017-04-09T07:58:04.149Z,56
2017-04-09T07:59:04.940Z,55
2017-04-09T08:00:05.730Z,55
2017-04-09T08:01:06.522Z,55
2017-04-09T08:02:07.529Z,54
2017-04-09T08:03:08.322Z,54
2017-04-09T08:04:09.112Z,54
2017-04-09T08:05:09.901Z,55
2017-04-09T08:06:10.691Z,55
2017-04-09T08:07:11.735Z,56
2017-04-09T08:08:12.527Z,55
2017-04-09T08:09:13.317Z,55
2017-04-09T08:10:14.106Z,55
2017-04-09T08:11:14.900Z,54
2017-04-09T08:12:15.946Z,54
2017-04-09T08:13:16.731Z,53
2017-04-09T08:14:17.522Z,53
2017-04-09T08:15:18.317Z,53
2017-04-09T08:16:19.113Z,52
2017-04-09T08:17:20.156Z,53
2017-04-09T08:18:20.946Z,53
2017-04-09T08:19:21.740Z,52
2017-04-09T08:20:22.530Z,52
2017-04-09T08:21:23.328Z,51
2017-04-09T08:22:24.367Z,51
2017-04-09T08:23:25.163Z,49
2017-04-09T08:24:25.956Z,47
2017-04-09T08:25:26.748Z,48
2017-04-09T08:26:27.545Z,48
2017-04-09T08:27:28.587Z,48
2017-04-09T08:28:29.387Z,48
2017-04-09T08:29:30.177Z,48
2017-04-09T08:30:30.973Z,47
2017-04-09T08:31:31.767Z,48
2017-04-09T08:32:32.809Z,48
2017-04-09T08:33:33.603Z,47
2017-04-09T08:34:34.393Z,46
2017-04-09T08:35:35.181Z,45
2017-04-09T08:36:35.974Z,46
2017-04-09T08:37:37.015Z,46
2017-04-09T08:38:37.806Z,47
2017-04-09T08:39:38.600Z,47
2017-04-09T08:40:39.394Z,46
2017-04-09T08:41:40.184Z,46
2017-04-09T08:42:41.225Z,46
2017-04-09T08:43:42.016Z,44
2017-04-09T08:44:42.808Z,43
2017-04-09T08:45:43.599Z,42
2017-04-09T08:46:44.391Z,43
2017-04-09T08:47:45.432Z,42
2017-04-09T08:48:46.229Z,41
2017-04-09T08:49:47.023Z,40
2017-04-09T08:50:47.816Z,38
2017-04-09T08:51:48.611Z,37
2017-04-09T08:52:49.650Z,35
2017-04-09T08:53:50.445Z,35
2017-04-09T08:54:51.241Z,35
2017-04-09T08:55:52.035Z,37
2017-04-09T08:56:52.829Z,36
2017-04-09T08:57:53.875Z,36
2017-04-09T08:58:54.665Z,35
2017-04-09T08:59:55.457Z,35
2017-04-09T09:00:56.251Z,34
2017-04-09T09:01:57.049Z,33
2017-04-09T09:02:58.095Z,33
2017-04-09T09:03:58.888Z,33
2017-04-09T09:04:59.682Z,33
2017-04-09T09:06:00.477Z,33
2017-04-09T09:07:01.274Z,34
2017-04-09T09:08:02.320Z,35
2017-04-09T09:09:03.119Z,35
2017-04-09T09:10:03.915Z,34
2017-04-09T09:11:04.709Z,34
2017-04-09T09:12:05.505Z,34
2017-04-09T09:13:06.550Z,32
2017-04-09T09:14:07.344Z,32
2017-04-09T09:15:08.142Z,32
2017-04-09T09:16:08.936Z,31
2017-04-09T09:17:09.734Z,33
2017-04-09T09:18:10.781Z,34
2017-04-09T09:19:11.580Z,34
2017-04-09T09:20:12.380Z,33
2017-04-09T09:21:13.178Z,33
2017-04-09T09:22:13.976Z,33
2017-04-09T09:23:15.023Z,32
2017-04-09T09:24:15.827Z,32
2017-04-09T09:25:16.615Z,32
2017-04-09T09:26:17.411Z,32
2017-04-09T09:27:18.210Z,31
2017-04-09T09:28:19.259Z,30
2017-04-09T09:29:20.054Z,30
2017-04-09T09:30:20.852Z,30
2017-04-09T09:31:21.654Z,29
2017-04-09T09:32:22.459Z,28
2017-04-09T09:33:23.507Z,29
2017-04-09T09:34:24.310Z,28
2017-04-09T09:35:25.110Z,27
2017-04-09T09:36:25.908Z,27
2017-04-09T09:37:26.709Z,28
2017-04-09T09:38:27.766Z,28
2017-04-09T09:39:28.571Z,28
2017-04-09T09:40:29.374Z,29
2017-04-09T09:41:30.176Z,29
2017-04-09T09:42:30.984Z,29
2017-04-09T09:43:32.036Z,31
2017-04-09T09:44:32.844Z,31
2017-04-09T09:45:33.644Z,31
2017-04-09T09:46:34.451Z,31
2017-04-09T09:47:35.256Z,30
2017-04-09T09:48:36.312Z,29
2017-04-09T09:49:37.113Z,27
2017-04-09T09:50:37.922Z,27
2017-04-09T09:51:38.739Z,28
2017-04-09T09:52:39.537Z,30
2017-04-09T09:53:40.596Z,30
2017-04-09T09:54:41.395Z,30
2017-04-09T09:55:42.204Z,29
2017-04-09T09:56:43.010Z,29
2017-04-09T09:57:43.816Z,28
2017-04-09T09:58:44.875Z,27
2017-04-09T09:59:45.681Z,26
2017-04-09T10:00:46.486Z,26
2017-04-09T10:01:47.293Z,24
2017-04-09T10:02:48.095Z,23
2017-04-09T10:03:49.147Z,23
2017-04-09T10:04:49.957Z,22
2017-04-09T10:05:50.761Z,23
2017-04-09T10:06:51.571Z,24
2017-04-09T10:07:52.373Z,25
2017-04-09T10:08:53.431Z,26
2017-04-09T10:09:54.241Z,27
2017-04-09T10:10:55.051Z,29
2017-04-09T10:11:55.853Z,28
2017-04-09T10:12:56.658Z,27
2017-04-09T10:13:57.717Z,27
2017-04-09T10:14:58.524Z,27
2017-04-09T10:15:59.333Z,27
2017-04-09T10:17:00.132Z,26
2017-04-09T10:18:00.938Z,26
2017-04-09T10:19:01.996Z,24
2017-04-09T10:20:02.794Z,24
2017-04-09T10:21:03.603Z,23
2017-04-09T10:22:04.403Z,21
2017-04-09T10:23:05.207Z,21
2017-04-09T10:24:06.261Z,20
2017-04-09T10:25:07.067Z,22
2017-04-09T10:26:07.870Z,22
2017-04-09T10:27:08.677Z,23
2017-04-09T10:28:09.482Z,23
2017-04-09T10:29:10.540Z,23
2017-04-09T10:30:11.344Z,24
2017-04-09T10:31:12.335Z,24
2017-04-09T10:32:13.141Z,23
2017-04-09T10:33:13.942Z,22
2017-04-09T10:34:15.005Z,23
2017-04-09T10:35:15.802Z,23
2017-04-09T10:36:16.605Z,24
2017-04-09T10:37:17.410Z,23
2017-04-09T10:38:18.215Z,22
2017-04-09T10:39:19.268Z,23
2017-04-09T10:40:20.075Z,24
2017-04-09T10:41:21.065Z,24
2017-04-09T10:42:21.873Z,23
2017-04-09T10:43:22.674Z,22
2017-04-09T10:44:23.732Z,20
2017-04-09T10:45:24.534Z,20
2017-04-09T10:46:25.342Z,22
2017-04-09T10:47:26.150Z,23
2017-04-09T10:48:26.957Z,23
2017-04-09T10:49:28.010Z,22
2017-04-09T10:50:28.813Z,22
2017-04-09T10:51:29.620Z,22
2017-04-09T10:52:30.429Z,21
2017-04-09T10:53:31.231Z,21
2017-04-09T10:54:32.283Z,20
2017-04-09T10:55:33.089Z,20
2017-04-09T10:56:33.895Z,20
2017-04-09T10:57:34.702Z,22
2017-04-09T10:58:35.500Z,23
2017-04-09T10:59:36.557Z,24
2017-04-09T11:00:37.367Z,23
2017-04-09T11:01:38.172Z,24
2017-04-09T11:02:38.977Z,23
2017-04-09T11:03:39.781Z,22
2017-04-09T11:04:40.837Z,21
2017-04-09T11:05:41.643Z,22
2017-04-09T11:06:42.448Z,23
2017-04-09T11:07:43.253Z,24
2017-04-09T11:08:44.059Z,23
2017-04-09T11:09:45.111Z,23
2017-04-09T11:10:45.920Z,23
2017-04-09T11:11:46.725Z,21
2017-04-09T11:12:47.527Z,20
2017-04-09T11:13:48.329Z,18
2017-04-09T11:14:49.381Z,19
2017-04-09T11:15:50.184Z,18
2017-04-09T11:16:50.995Z,18
2017-04-09T11:17:51.792Z,19
2017-04-09T11:18:52.599Z,19
2017-04-09T11:19:53.654Z,18
2017-04-09T11:20:54.455Z,18
2017-04-09T11:21:55.266Z,19
2017-04-09T11:22:56.068Z,19
2017-04-09T11:23:56.872Z,19
2017-04-09T11:24:57.927Z,18
2017-04-09T11:25:58.732Z,18
2017-04-09T11:26:59.536Z,18
2017-04-09T11:28:00.343Z,17
2017-04-09T11:29:01.145Z,16
2017-04-09T11:30:02.383Z,16
2017-04-09T11:31:03.191Z,16
2017-04-09T11:32:03.998Z,18
2017-04-09T11:33:04.807Z,18
2017-04-09T11:34:05.613Z,19
2017-04-09T11:35:06.669Z,19
2017-04-09T11:36:07.479Z,19
2017-04-09T11:37:08.284Z,19
2017-04-09T11:38:09.100Z,18
2017-04-09T11:39:09.902Z,19
2017-04-09T11:40:10.956Z,20
2017-04-09T11:41:11.761Z,20
2017-04-09T11:42:12.570Z,22
2017-04-09T11:43:13.375Z,23
2017-04-09T11:44:14.175Z,23
2017-04-09T11:45:15.230Z,21
2017-04-09T11:46:16.037Z,20
2017-04-09T11:47:16.840Z,17
2017-04-09T11:48:17.643Z,16
2017-04-09T11:49:18.449Z,15
2017-04-09T11:50:19.505Z,14
2017-04-09T11:51:20.309Z,13
2017-04-09T11:52:21.116Z,13
2017-04-09T11:53:21.921Z,14
2017-04-09T11:54:22.725Z,14
2017-04-09T11:55:23.777Z,13
2017-04-09T11:56:24.582Z,13
2017-04-09T11:57:25.390Z,13
2017-04-09T11:58:26.196Z,13
2017-04-09T11:59:27.002Z,14
2017-04-09T12:00:28.049Z,15
2017-04-09T12:01:28.853Z,15
2017-04-09T12:02:29.661Z,15
2017-04-09T12:03:30.462Z,15
2017-04-09T12:04:31.268Z,15
2017-04-09T12:05:32.320Z,14
2017-04-09T12:06:33.122Z,15
2017-04-09T12:07:33.921Z,16
2017-04-09T12:08:34.722Z,15
2017-04-09T12:09:35.524Z,15
2017-04-09T12:10:36.579Z,15
2017-04-09T12:11:37.392Z,16
2017-04-09T12:12:38.196Z,16
2017-04-09T12:13:38.999Z,15
2017-04-09T12:14:39.800Z,15
2017-04-09T12:15:40.853Z,15
2017-04-09T12:16:41.680Z,16
2017-04-09T12:17:42.455Z,15
2017-04-09T12:18:43.253Z,16
2017-04-09T12:19:44.057Z,15
2017-04-09T12:20:45.116Z,14
2017-04-09T12:21:45.914Z,15
2017-04-09T12:22:46.714Z,15
2017-04-09T12:23:47.519Z,15
2017-04-09T12:24:48.319Z,15
2017-04-09T12:25:49.374Z,16
2017-04-09T12:26:50.184Z,16
2017-04-09T12:27:50.981Z,17
2017-04-09T12:28:51.786Z,16
2017-04-09T12:29:52.595Z,15
2017-04-09T12:30:53.644Z,13
2017-04-09T12:31:54.445Z,14
2017-04-09T12:32:55.249Z,15
2017-04-09T12:33:56.053Z,16
2017-04-09T12:34:56.859Z,16
2017-04-09T12:35:57.917Z,15
2017-04-09T12:36:58.723Z,15
2017-04-09T12:37:59.529Z,17
2017-04-09T12:39:00.333Z,17
2017-04-09T12:40:01.135Z,16
2017-04-09T12:41:02.193Z,16
2017-04-09T12:42:03.002Z,16
2017-04-09T12:43:03.809Z,16
2017-04-09T12:44:04.615Z,15
2017-04-09T12:45:05.416Z,16
2017-04-09T12:46:06.470Z,16
2017-04-09T12:47:07.275Z,16
2017-04-09T12:48:08.081Z,15
2017-04-09T12:49:08.885Z,16
2017-04-09T12:50:09.696Z,16
2017-04-09T12:51:10.749Z,16
2017-04-09T12:52:11.554Z,16
2017-04-09T12:53:12.356Z,16
2017-04-09T12:54:13.162Z,16
2017-04-09T12:55:13.966Z,16
2017-04-09T12:56:15.021Z,17
2017-04-09T12:57:15.823Z,15
2017-04-09T12:58:16.629Z,15
2017-04-09T12:59:17.433Z,13
2017-04-09T13:00:18.239Z,12
2017-04-09T13:01:19.294Z,12
2017-04-09T13:02:20.097Z,13
2017-04-09T13:03:20.903Z,14
2017-04-09T13:04:21.707Z,13
2017-04-09T13:05:22.515Z,12
2017-04-09T13:06:23.569Z,12
2017-04-09T13:07:24.370Z,12
2017-04-09T13:08:25.172Z,13
2017-04-09T13:09:25.978Z,12
2017-04-09T13:10:26.783Z,12
2017-04-09T13:11:27.831Z,12
2017-04-09T13:12:28.637Z,14
2017-04-09T13:13:29.439Z,15
2017-04-09T13:14:30.245Z,15
2017-04-09T13:15:31.053Z,15
2017-04-09T13:16:32.104Z,15
2017-04-09T13:17:32.909Z,14
2017-04-09T13:18:33.710Z,13
2017-04-09T13:19:34.513Z,12
2017-04-09T13:20:35.318Z,10
2017-04-09T13:21:36.373Z,9
2017-04-09T13:22:37.176Z,10
2017-04-09T13:23:38.163Z,11
2017-04-09T13:24:38.967Z,13
2017-04-09T13:25:39.774Z,13
2017-04-09T13:26:40.827Z,12
2017-04-09T13:27:41.629Z,12
2017-04-09T13:28:42.431Z,13
2017-04-09T13:29:43.236Z,12
2017-04-09T13:30:44.042Z,11
2017-04-09T13:31:45.099Z,10
2017-04-09T13:32:45.901Z,10
2017-04-09T13:33:46.700Z,11
2017-04-09T13:34:47.501Z,11
2017-04-09T13:35:48.310Z,12
2017-04-09T13:36:49.363Z,11
2017-04-09T13:37:50.169Z,11
2017-04-09T13:38:50.975Z,11
2017-04-09T13:39:51.777Z,12
2017-04-09T13:40:52.579Z,14
2017-04-09T13:41:53.636Z,13
2017-04-09T13:42:54.443Z,14
2017-04-09T13:43:55.246Z,13
2017-04-09T13:44:56.051Z,14
2017-04-09T13:45:56.859Z,14
2017-04-09T13:46:57.915Z,14
2017-04-09T13:47:58.721Z,14
2017-04-09T13:48:59.525Z,13
2017-04-09T13:50:00.326Z,13
2017-04-09T13:51:01.129Z,13
2017-04-09T13:52:02.185Z,12
2017-04-09T13:53:02.984Z,11
2017-04-09T13:54:03.791Z,11
2017-04-09T13:55:04.591Z,11
2017-04-09T13:56:05.396Z,10
2017-04-09T13:57:06.497Z,10
2017-04-09T13:58:07.302Z,10
2017-04-09T13:59:08.108Z,10
2017-04-09T14:00:08.908Z,11
2017-04-09T14:01:09.711Z,10
2017-04-09T14:02:10.762Z,11
2017-04-09T14:03:11.566Z,11
2017-04-09T14:04:12.371Z,13
2017-04-09T14:05:13.177Z,13
2017-04-09T14:06:13.983Z,14
2017-04-09T14:07:15.037Z,13
2017-04-09T14:08:15.840Z,13
2017-04-09T14:09:16.643Z,12
2017-04-09T14:10:17.448Z,12
2017-04-09T14:11:18.254Z,11
2017-04-09T14:12:19.307Z,12
2017-04-09T14:13:20.236Z,12
2017-04-09T14:14:21.001Z,12
2017-04-09T14:15:21.812Z,12
2017-04-09T14:16:22.674Z,13
2017-04-09T14:17:23.772Z,13
2017-04-09T14:18:24.583Z,13
2017-04-09T14:19:25.447Z,13
2017-04-09T14:20:26.265Z,13
2017-04-09T14:21:27.066Z,11
2017-04-09T14:22:28.123Z,11
2017-04-09T14:23:28.926Z,11
2017-04-09T14:24:29.727Z,10
2017-04-09T14:25:30.561Z,10
2017-04-09T14:26:31.359Z,11
2017-04-09T14:27:32.439Z,11